Time;durP1;ratioP1;P1;durP2;ratioP2;P2;SDS_P1;SDS_P2;PMS_P1;PMS_P2;Temp;Humidity;BMP_temperature;BMP_pressure;BME280_temperature;BME280_humidity;BME280_pressure;Samples;Min_cycle;Max_cycle;Signal;HPM_P1;HPM_P2
2022/11/04 00:00:58;;;;;;;;;;;22.40;45.90;;;;;;474571;251;1231;-53
2022/11/04 00:02:59;;;;;;;;;;;22.40;45.90;;;;;;474753;251;1219;-53
2022/11/04 00:05:01;;;;;;;;;;;22.40;46.00;;;;;;474742;251;1371;-52
2022/11/04 00:08:22;;;;;;;;;;;22.40;46.00;;;;;;474918;251;1138;-53
2022/11/04 00:09:03;;;;;;;;;;;22.40;46.00;;;;;;473167;251;1671;-53
2022/11/04 00:13:24;;;;;;;;;;;22.40;46.00;;;;;;475078;251;1710;-53
2022/11/04 00:17:46;;;;;;;;;;;22.40;45.90;;;;;;459261;251;1348;-52
2022/11/04 00:29:17;;;;;;;;;;;22.30;46.00;;;;;;449679;264;1496;-53
2022/11/04 00:33:38;;;;;;;;;;;22.40;46.00;;;;;;449671;264;1289;-53
2022/11/04 00:35:39;;;;;;;;;;;22.40;45.90;;;;;;449517;265;2187;-53
2022/11/04 00:37:40;;;;;;;;;;;22.40;45.90;;;;;;449749;265;1315;-53
2022/11/04 00:39:42;;;;;;;;;;;22.40;46.00;;;;;;449692;265;1412;-53
2022/11/04 00:41:43;;;;;;;;;;;22.40;46.00;;;;;;449718;265;1275;-52
2022/11/04 00:43:44;;;;;;;;;;;22.40;46.00;;;;;;449681;265;1288;-53
2022/11/04 00:45:46;;;;;;;;;;;22.40;45.90;;;;;;449666;265;1494;-53
2022/11/04 00:47:47;;;;;;;;;;;22.40;46.00;;;;;;449830;265;1292;-52
2022/11/04 00:49:49;;;;;;;;;;;22.40;45.90;;;;;;449685;265;1307;-53
2022/11/04 00:51:50;;;;;;;;;;;22.40;45.90;;;;;;449651;265;1346;-53
2022/11/04 00:53:51;;;;;;;;;;;22.40;45.90;;;;;;449697;265;1370;-53
2022/11/04 00:55:53;;;;;;;;;;;22.40;45.90;;;;;;449790;265;2174;-53
2022/11/04 00:57:54;;;;;;;;;;;22.40;45.90;;;;;;449661;265;1298;-53
2022/11/04 00:59:55;;;;;;;;;;;22.40;46.00;;;;;;449540;265;2075;-53
2022/11/04 01:01:57;;;;;;;;;;;22.40;46.00;;;;;;449990;265;1317;-53
2022/11/04 01:03:58;;;;;;;;;;;22.40;46.00;;;;;;449769;265;1964;-53
2022/11/04 01:05:59;;;;;;;;;;;22.40;46.00;;;;;;467714;251;1530;-52
2022/11/04 01:08:01;;;;;;;;;;;22.30;46.00;;;;;;474704;251;1280;-53
2022/11/04 01:10:02;;;;;;;;;;;22.40;46.00;;;;;;475033;251;1440;-53
2022/11/04 01:12:03;;;;;;;;;;;22.40;46.00;;;;;;474759;251;1643;-53
2022/11/04 01:14:05;;;;;;;;;;;22.40;46.00;;;;;;474633;251;1298;-53
2022/11/04 01:16:06;;;;;;;;;;;22.40;46.00;;;;;;474698;251;2204;-52
2022/11/04 01:18:07;;;;;;;;;;;22.40;46.00;;;;;;475020;251;1340;-53
2022/11/04 01:20:09;;;;;;;;;;;22.40;46.00;;;;;;474607;251;1302;-53
2022/11/04 01:22:10;;;;;;;;;;;22.30;46.00;;;;;;474615;251;1228;-53
2022/11/04 01:24:12;;;;;;;;;;;22.40;46.00;;;;;;474505;251;1244;-53
2022/11/04 01:26:13;;;;;;;;;;;22.40;46.00;;;;;;475074;251;1262;-52
2022/11/04 01:28:15;;;;;;;;;;;22.40;46.00;;;;;;474984;251;1402;-52
2022/11/04 01:30:16;;;;;;;;;;;22.40;46.00;;;;;;474537;251;1316;-53
2022/11/04 01:32:17;;;;;;;;;;;22.40;46.00;;;;;;474745;251;1343;-53
2022/11/04 01:34:19;;;;;;;;;;;22.40;46.00;;;;;;474677;251;1212;-53
2022/11/04 01:36:20;;;;;;;;;;;22.40;46.00;;;;;;474710;251;2146;-53
2022/11/04 01:38:22;;;;;;;;;;;22.40;46.00;;;;;;474803;251;1274;-52
2022/11/04 01:40:23;;;;;;;;;;;22.40;46.00;;;;;;474673;251;1293;-53
2022/11/04 01:42:24;;;;;;;;;;;22.40;46.00;;;;;;475098;251;1164;-52
2022/11/04 01:44:26;;;;;;;;;;;22.40;46.00;;;;;;475091;251;1240;-53
2022/11/04 01:46:27;;;;;;;;;;;22.40;46.00;;;;;;474815;251;1329;-52
2022/11/04 01:48:28;;;;;;;;;;;22.40;46.00;;;;;;474628;251;1255;-52
2022/11/04 01:50:30;;;;;;;;;;;22.40;46.10;;;;;;474657;251;1325;-53
2022/11/04 01:52:31;;;;;;;;;;;22.30;46.00;;;;;;474878;251;1352;-52
2022/11/04 01:54:32;;;;;;;;;;;22.40;46.00;;;;;;475073;251;1276;-53
2022/11/04 01:56:33;;;;;;;;;;;22.30;46.00;;;;;;475056;251;2137;-52
2022/11/04 01:58:35;;;;;;;;;;;22.40;46.00;;;;;;474736;251;1218;-53
2022/11/04 02:00:36;;;;;;;;;;;22.40;46.00;;;;;;474545;251;1210;-53
2022/11/04 02:02:38;;;;;;;;;;;22.40;46.00;;;;;;474636;251;1263;-53
2022/11/04 02:04:39;;;;;;;;;;;22.40;46.00;;;;;;474615;251;1320;-53
2022/11/04 02:06:40;;;;;;;;;;;22.40;46.00;;;;;;474632;251;1277;-53
2022/11/04 02:08:42;;;;;;;;;;;22.40;46.00;;;;;;474775;251;1254;-52
2022/11/04 02:10:43;;;;;;;;;;;22.40;46.00;;;;;;474660;251;1260;-53
2022/11/04 02:12:50;;;;;;;;;;;22.40;46.00;;;;;;474938;251;1257;-52
2022/11/04 02:14:52;;;;;;;;;;;22.40;46.00;;;;;;474990;251;1239;-53
2022/11/04 02:16:53;;;;;;;;;;;22.40;45.90;;;;;;474752;251;2157;-53
2022/11/04 02:18:54;;;;;;;;;;;22.40;45.90;;;;;;474888;251;1311;-53
2022/11/04 02:20:56;;;;;;;;;;;22.40;45.90;;;;;;474612;251;1368;-53
2022/11/04 02:22:57;;;;;;;;;;;22.40;45.90;;;;;;474577;251;1333;-53
2022/11/04 02:24:58;;;;;;;;;;;22.40;46.00;;;;;;474494;251;1245;-53
2022/11/04 02:27:00;;;;;;;;;;;22.40;46.00;;;;;;475010;251;1256;-52
2022/11/04 02:29:01;;;;;;;;;;;22.40;46.10;;;;;;474868;251;1261;-53
2022/11/04 02:31:02;;;;;;;;;;;22.30;46.00;;;;;;474750;251;1357;-53
2022/11/04 02:33:05;;;;;;;;;;;22.40;46.10;;;;;;474793;251;1373;-53
2022/11/04 02:35:05;;;;;;;;;;;22.30;46.10;;;;;;474779;251;2042;-53
2022/11/04 02:37:06;;;;;;;;;;;22.40;46.10;;;;;;474558;251;2189;-53
2022/11/04 02:39:08;;;;;;;;;;;22.30;46.00;;;;;;474605;251;1242;-53
2022/11/04 02:41:09;;;;;;;;;;;22.40;46.10;;;;;;474629;251;1187;-53
2022/11/04 02:43:10;;;;;;;;;;;22.30;46.00;;;;;;474603;251;1404;-53
2022/11/04 02:45:12;;;;;;;;;;;22.40;46.10;;;;;;474929;251;1302;-52
2022/11/04 02:47:13;;;;;;;;;;;22.30;46.00;;;;;;474748;251;1617;-53
2022/11/04 02:49:14;;;;;;;;;;;22.30;46.00;;;;;;475004;251;1689;-53
2022/11/04 02:51:16;;;;;;;;;;;22.30;46.10;;;;;;475059;251;1216;-53
2022/11/04 02:53:17;;;;;;;;;;;22.30;46.10;;;;;;474985;251;1334;-53
2022/11/04 02:55:18;;;;;;;;;;;22.30;46.10;;;;;;474738;251;1252;-53
2022/11/04 02:57:20;;;;;;;;;;;22.40;46.10;;;;;;474680;251;2217;-52
2022/11/04 02:59:21;;;;;;;;;;;22.30;46.10;;;;;;474957;251;1315;-52
2022/11/04 03:01:22;;;;;;;;;;;22.30;46.00;;;;;;474637;251;1523;-53
2022/11/04 03:03:24;;;;;;;;;;;22.30;46.10;;;;;;474963;251;1311;-53
2022/11/04 03:05:25;;;;;;;;;;;22.40;46.10;;;;;;474869;251;1185;-52
2022/11/04 03:07:26;;;;;;;;;;;22.30;46.10;;;;;;474556;251;1193;-53
2022/11/04 03:09:28;;;;;;;;;;;22.30;46.00;;;;;;475003;251;1223;-53
2022/11/04 03:11:29;;;;;;;;;;;22.30;46.10;;;;;;474573;251;1429;-53
2022/11/04 03:13:30;;;;;;;;;;;22.30;46.10;;;;;;474829;251;1261;-53
2022/11/04 03:15:32;;;;;;;;;;;22.30;46.10;;;;;;474972;251;1266;-53
2022/11/04 03:17:35;;;;;;;;;;;22.30;46.00;;;;;;474764;251;2176;-53
2022/11/04 03:19:34;;;;;;;;;;;22.30;46.00;;;;;;474775;251;1915;-52
2022/11/04 03:21:36;;;;;;;;;;;22.30;46.10;;;;;;474718;251;1219;-53
2022/11/04 03:23:37;;;;;;;;;;;22.30;46.10;;;;;;474879;251;1353;-53
2022/11/04 03:25:38;;;;;;;;;;;22.40;46.10;;;;;;474735;251;1189;-53
2022/11/04 03:27:40;;;;;;;;;;;22.30;46.10;;;;;;475056;251;1393;-52
2022/11/04 03:29:41;;;;;;;;;;;22.30;46.10;;;;;;474695;251;1197;-52
2022/11/04 03:31:42;;;;;;;;;;;22.30;46.10;;;;;;475029;251;1256;-52
2022/11/04 03:33:44;;;;;;;;;;;22.30;46.10;;;;;;474983;251;1366;-53
2022/11/04 03:35:45;;;;;;;;;;;22.30;46.00;;;;;;475022;251;1113;-52
2022/11/04 03:37:46;;;;;;;;;;;22.40;46.10;;;;;;474764;251;2169;-53
2022/11/04 03:39:48;;;;;;;;;;;22.30;46.10;;;;;;475073;251;1233;-53
2022/11/04 03:41:49;;;;;;;;;;;22.30;46.10;;;;;;474716;251;1180;-52
2022/11/04 03:43:50;;;;;;;;;;;22.30;46.00;;;;;;474616;251;1188;-53
2022/11/04 03:45:51;;;;;;;;;;;22.30;46.10;;;;;;474936;251;1263;-52
2022/11/04 03:47:53;;;;;;;;;;;22.40;46.10;;;;;;474580;251;1241;-52
2022/11/04 03:49:54;;;;;;;;;;;22.30;46.10;;;;;;474638;251;1234;-53
2022/11/04 03:51:56;;;;;;;;;;;22.30;46.10;;;;;;474602;251;1654;-53
2022/11/04 03:53:57;;;;;;;;;;;22.40;46.10;;;;;;474906;251;1251;-52
2022/11/04 03:55:58;;;;;;;;;;;22.40;46.10;;;;;;474586;251;1669;-53
2022/11/04 03:58:00;;;;;;;;;;;22.30;46.10;;;;;;474844;251;2204;-52
2022/11/04 04:00:01;;;;;;;;;;;22.30;46.10;;;;;;474577;251;1446;-53
2022/11/04 04:02:02;;;;;;;;;;;22.30;46.10;;;;;;474451;251;1855;-53
2022/11/04 04:04:04;;;;;;;;;;;22.30;46.10;;;;;;475087;251;1225;-53
2022/11/04 04:06:05;;;;;;;;;;;22.30;46.10;;;;;;474546;251;1627;-53
2022/11/04 04:08:06;;;;;;;;;;;22.30;46.10;;;;;;474489;251;1403;-53
2022/11/04 04:10:37;;;;;;;;;;;22.30;46.10;;;;;;474627;251;1304;-53
2022/11/04 04:12:09;;;;;;;;;;;22.30;46.10;;;;;;473515;251;1609;-53
2022/11/04 04:14:10;;;;;;;;;;;22.40;46.10;;;;;;474517;251;1256;-53
2022/11/04 04:16:11;;;;;;;;;;;22.30;46.10;;;;;;474602;251;1333;-52
2022/11/04 04:18:13;;;;;;;;;;;22.30;46.10;;;;;;474753;251;2196;-52
2022/11/04 04:20:14;;;;;;;;;;;22.30;46.10;;;;;;474765;251;1345;-53
2022/11/04 04:22:16;;;;;;;;;;;22.30;46.10;;;;;;474588;251;1262;-53
2022/11/04 04:28:55;;;;;;;;;;;22.30;46.10;;;;;;475044;251;1376;-53
2022/11/04 04:30:57;;;;;;;;;;;22.30;46.10;;;;;;474639;251;1219;-52
2022/11/04 04:32:58;;;;;;;;;;;22.40;46.10;;;;;;474877;251;1304;-53
2022/11/04 04:37:20;;;;;;;;;;;22.30;46.10;;;;;;474571;251;2201;-53
2022/11/04 04:46:20;;;;;;;;;;;22.30;46.10;;;;;;474653;251;1374;-52
2022/11/04 04:48:21;;;;;;;;;;;22.30;46.10;;;;;;474677;251;1244;-54
2022/11/04 04:50:22;;;;;;;;;;;22.30;46.10;;;;;;474872;251;1248;-52
2022/11/04 04:52:24;;;;;;;;;;;22.30;46.20;;;;;;474605;251;1271;-53
2022/11/04 04:54:25;;;;;;;;;;;22.30;46.20;;;;;;474666;251;1402;-53
2022/11/04 04:56:26;;;;;;;;;;;22.40;46.20;;;;;;474639;251;1348;-53
2022/11/04 04:58:27;;;;;;;;;;;22.30;46.10;;;;;;474638;251;2204;-53
2022/11/04 05:00:29;;;;;;;;;;;22.30;46.20;;;;;;474632;251;1265;-53
2022/11/04 05:02:33;;;;;;;;;;;22.30;46.10;;;;;;475089;251;1155;-53
2022/11/04 05:04:34;;;;;;;;;;;22.30;46.10;;;;;;474656;251;1577;-53
2022/11/04 05:06:35;;;;;;;;;;;22.30;46.10;;;;;;475018;251;1217;-53
2022/11/04 05:08:37;;;;;;;;;;;22.30;46.10;;;;;;474526;251;1213;-53
2022/11/04 05:10:38;;;;;;;;;;;22.30;46.10;;;;;;474613;251;1430;-53
2022/11/04 05:14:59;;;;;;;;;;;22.30;46.10;;;;;;474566;251;1248;-53
2022/11/04 05:17:00;;;;;;;;;;;22.30;46.10;;;;;;475110;251;1174;-52
2022/11/04 05:19:01;;;;;;;;;;;22.30;46.10;;;;;;474656;251;2212;-53
2022/11/04 05:21:03;;;;;;;;;;;22.30;46.10;;;;;;475076;251;1323;-52
2022/11/04 05:23:04;;;;;;;;;;;22.30;46.10;;;;;;475056;251;1216;-53
2022/11/04 05:25:05;;;;;;;;;;;22.30;46.10;;;;;;474819;251;1409;-53
2022/11/04 05:27:07;;;;;;;;;;;22.40;46.10;;;;;;474595;251;1217;-53
2022/11/04 05:29:08;;;;;;;;;;;22.30;46.10;;;;;;474576;251;1255;-53
2022/11/04 05:31:09;;;;;;;;;;;22.30;46.10;;;;;;474714;251;1640;-53
2022/11/04 05:33:11;;;;;;;;;;;22.30;46.10;;;;;;474762;251;1349;-53
2022/11/04 05:35:12;;;;;;;;;;;22.30;46.10;;;;;;474768;251;1289;-53
2022/11/04 05:37:13;;;;;;;;;;;22.30;46.10;;;;;;474400;251;1393;-53
2022/11/04 05:39:15;;;;;;;;;;;22.30;46.10;;;;;;474679;251;2244;-53
2022/11/04 05:41:24;;;;;;;;;;;22.40;46.20;;;;;;474788;251;1662;-53
2022/11/04 05:43:17;;;;;;;;;;;22.40;46.10;;;;;;474257;251;1805;-53
2022/11/04 05:45:19;;;;;;;;;;;22.40;46.00;;;;;;474947;251;1244;-52
2022/11/04 05:47:20;;;;;;;;;;;22.40;46.00;;;;;;474479;251;1643;-53
2022/11/04 05:49:21;;;;;;;;;;;22.40;46.10;;;;;;474707;251;1256;-53
2022/11/04 05:51:23;;;;;;;;;;;22.40;46.10;;;;;;474430;251;1568;-52
2022/11/04 05:53:24;;;;;;;;;;;22.40;46.10;;;;;;474662;251;1399;-53
2022/11/04 05:55:25;;;;;;;;;;;22.40;46.10;;;;;;474861;251;1204;-53
2022/11/04 05:57:27;;;;;;;;;;;22.30;46.10;;;;;;474500;251;1475;-53
2022/11/04 05:59:28;;;;;;;;;;;22.30;46.10;;;;;;474668;251;2137;-52
2022/11/04 06:01:29;;;;;;;;;;;22.30;46.10;;;;;;474273;251;1611;-53
2022/11/04 06:03:31;;;;;;;;;;;22.30;46.10;;;;;;474939;251;1323;-53
2022/11/04 06:05:32;;;;;;;;;;;22.30;46.20;;;;;;474807;251;1365;-53
2022/11/04 06:07:33;;;;;;;;;;;22.30;46.20;;;;;;474490;251;2068;-53
2022/11/04 06:09:40;;;;;;;;;;;22.30;46.20;;;;;;474852;251;1254;-53
2022/11/04 06:11:42;;;;;;;;;;;22.30;46.20;;;;;;474872;251;1338;-53
2022/11/04 06:13:43;;;;;;;;;;;22.30;46.10;;;;;;474626;251;1225;-53
2022/11/04 06:15:45;;;;;;;;;;;22.30;46.10;;;;;;474569;251;1377;-53
2022/11/04 06:17:46;;;;;;;;;;;22.40;46.10;;;;;;474682;251;2201;-53
2022/11/04 06:19:47;;;;;;;;;;;22.30;46.10;;;;;;474578;251;1279;-53
2022/11/04 06:21:49;;;;;;;;;;;22.40;46.10;;;;;;474597;251;1317;-53
2022/11/04 06:23:50;;;;;;;;;;;22.30;46.10;;;;;;474513;251;1254;-52
2022/11/04 06:25:51;;;;;;;;;;;22.40;46.10;;;;;;474804;251;1316;-53
2022/11/04 06:27:53;;;;;;;;;;;22.30;46.10;;;;;;474641;251;1323;-52
2022/11/04 06:29:54;;;;;;;;;;;22.40;46.10;;;;;;474747;251;1346;-53
2022/11/04 06:31:55;;;;;;;;;;;22.30;46.10;;;;;;475083;251;1704;-53
2022/11/04 06:33:57;;;;;;;;;;;22.30;46.10;;;;;;474560;251;1308;-53
2022/11/04 06:35:58;;;;;;;;;;;22.30;46.10;;;;;;474744;251;1287;-53
2022/11/04 06:37:59;;;;;;;;;;;22.40;46.10;;;;;;474741;251;2212;-53
2022/11/04 06:40:01;;;;;;;;;;;22.30;46.10;;;;;;474867;251;1220;-53
2022/11/04 06:42:02;;;;;;;;;;;22.40;46.10;;;;;;475066;251;1098;-53
2022/11/04 06:44:03;;;;;;;;;;;22.40;46.10;;;;;;474794;251;1303;-53
2022/11/04 06:46:04;;;;;;;;;;;22.40;46.10;;;;;;475080;251;1316;-53
2022/11/04 06:48:06;;;;;;;;;;;22.40;46.10;;;;;;474957;251;1201;-52
2022/11/04 06:50:07;;;;;;;;;;;22.30;46.10;;;;;;474510;251;1653;-53
2022/11/04 06:52:08;;;;;;;;;;;22.30;46.10;;;;;;474588;251;1174;-53
2022/11/04 06:54:10;;;;;;;;;;;22.30;46.10;;;;;;474512;251;1291;-53
2022/11/04 06:56:11;;;;;;;;;;;22.30;46.10;;;;;;474850;251;1232;-52
2022/11/04 06:58:12;;;;;;;;;;;22.40;46.10;;;;;;474614;251;2158;-53
2022/11/04 07:00:14;;;;;;;;;;;22.40;46.10;;;;;;474617;251;1219;-52
2022/11/04 07:02:15;;;;;;;;;;;22.40;46.10;;;;;;474790;251;1171;-53
2022/11/04 07:04:16;;;;;;;;;;;22.40;46.10;;;;;;474807;251;2232;-52
2022/11/04 07:06:18;;;;;;;;;;;22.40;46.20;;;;;;474561;251;1252;-53
2022/11/04 07:08:19;;;;;;;;;;;22.30;46.10;;;;;;474483;251;1302;-52
2022/11/04 07:10:21;;;;;;;;;;;22.30;46.10;;;;;;474620;251;1247;-53
2022/11/04 07:12:23;;;;;;;;;;;22.40;46.10;;;;;;474580;251;1349;-53
2022/11/04 07:14:23;;;;;;;;;;;22.40;46.00;;;;;;474741;251;2011;-53
2022/11/04 07:16:25;;;;;;;;;;;22.30;46.00;;;;;;474527;251;1246;-52
2022/11/04 07:18:26;;;;;;;;;;;22.30;46.00;;;;;;474573;251;2165;-53
2022/11/04 07:20:27;;;;;;;;;;;22.40;46.00;;;;;;474666;251;1253;-53
2022/11/04 07:22:29;;;;;;;;;;;22.40;46.10;;;;;;474869;251;1249;-53
2022/11/04 07:24:30;;;;;;;;;;;22.40;46.00;;;;;;474453;251;1253;-53
2022/11/04 07:26:31;;;;;;;;;;;22.30;46.00;;;;;;474536;251;1233;-52
2022/11/04 07:28:33;;;;;;;;;;;22.40;46.10;;;;;;474256;251;1271;-53
2022/11/04 07:30:34;;;;;;;;;;;22.30;46.00;;;;;;474564;251;1222;-53
2022/11/04 07:32:35;;;;;;;;;;;22.30;46.00;;;;;;474651;251;1279;-52
2022/11/04 07:34:37;;;;;;;;;;;22.30;46.00;;;;;;474511;251;1230;-53
2022/11/04 07:36:38;;;;;;;;;;;22.40;46.00;;;;;;474517;251;1335;-53
2022/11/04 07:38:40;;;;;;;;;;;22.40;45.90;;;;;;474454;251;2173;-53
2022/11/04 07:40:41;;;;;;;;;;;22.40;46.00;;;;;;474943;251;1277;-52
2022/11/04 07:42:42;;;;;;;;;;;22.40;45.90;;;;;;474403;251;1257;-52
2022/11/04 07:44:44;;;;;;;;;;;22.40;46.00;;;;;;474512;251;1266;-52
2022/11/04 07:46:45;;;;;;;;;;;22.40;45.90;;;;;;474530;251;1273;-53
2022/11/04 07:48:46;;;;;;;;;;;22.40;45.90;;;;;;474561;251;1312;-51
2022/11/04 07:50:48;;;;;;;;;;;22.40;45.90;;;;;;474430;251;1190;-52
2022/11/04 07:52:49;;;;;;;;;;;22.40;45.90;;;;;;474443;251;1436;-53
2022/11/04 07:54:50;;;;;;;;;;;22.30;45.90;;;;;;474446;251;1243;-53
2022/11/04 07:56:51;;;;;;;;;;;22.30;45.90;;;;;;474379;251;1247;-52
2022/11/04 07:58:53;;;;;;;;;;;22.40;46.00;;;;;;474313;251;2209;-52
2022/11/04 08:00:54;;;;;;;;;;;22.40;46.00;;;;;;474224;251;1284;-53
2022/11/04 08:02:55;;;;;;;;;;;22.40;45.90;;;;;;474253;251;1278;-53
2022/11/04 08:04:57;;;;;;;;;;;22.40;45.90;;;;;;474396;251;1301;-53
2022/11/04 08:06:58;;;;;;;;;;;22.40;45.90;;;;;;474796;251;1214;-53
2022/11/04 08:09:00;;;;;;;;;;;22.40;45.90;;;;;;474437;251;1567;-53
2022/11/04 08:11:01;;;;;;;;;;;22.40;45.90;;;;;;474409;251;1212;-53
2022/11/04 08:13:02;;;;;;;;;;;22.40;45.90;;;;;;474556;251;1198;-53
2022/11/04 08:15:04;;;;;;;;;;;22.40;45.90;;;;;;474439;251;1677;-52
2022/11/04 08:17:05;;;;;;;;;;;22.40;45.80;;;;;;474382;251;1221;-53
2022/11/04 08:19:07;;;;;;;;;;;22.40;45.80;;;;;;474752;251;2153;-52
2022/11/04 08:21:08;;;;;;;;;;;22.40;45.80;;;;;;474409;251;1251;-53
2022/11/04 08:23:10;;;;;;;;;;;22.40;45.80;;;;;;474461;251;1290;-53
2022/11/04 08:25:12;;;;;;;;;;;22.40;45.80;;;;;;474359;251;2409;-53
2022/11/04 08:27:13;;;;;;;;;;;22.40;45.80;;;;;;474450;251;1960;-53
2022/11/04 08:29:14;;;;;;;;;;;22.40;45.80;;;;;;474499;251;1245;-53
2022/11/04 08:31:15;;;;;;;;;;;22.40;45.80;;;;;;474474;251;1219;-53
2022/11/04 08:33:17;;;;;;;;;;;22.40;45.80;;;;;;474363;251;1390;-52
2022/11/04 08:35:18;;;;;;;;;;;22.40;45.80;;;;;;474527;251;1389;-53
2022/11/04 08:37:19;;;;;;;;;;;22.40;45.90;;;;;;474316;251;1334;-52
2022/11/04 08:39:21;;;;;;;;;;;22.40;45.80;;;;;;474435;251;2219;-52
2022/11/04 08:41:22;;;;;;;;;;;22.40;45.80;;;;;;474394;251;1257;-52
2022/11/04 08:43:24;;;;;;;;;;;22.40;45.80;;;;;;474641;251;1219;-53
2022/11/04 08:45:25;;;;;;;;;;;22.40;45.80;;;;;;474451;251;2231;-53
2022/11/04 08:47:26;;;;;;;;;;;22.40;45.80;;;;;;474488;251;1282;-53
2022/11/04 08:49:27;;;;;;;;;;;22.40;45.80;;;;;;474496;251;1230;-52
2022/11/04 08:51:29;;;;;;;;;;;22.40;45.80;;;;;;474466;251;1335;-53
2022/11/04 08:53:30;;;;;;;;;;;22.40;45.80;;;;;;474418;251;1268;-52
2022/11/04 08:55:31;;;;;;;;;;;22.40;45.80;;;;;;474619;251;1255;-52
2022/11/04 08:57:32;;;;;;;;;;;22.40;45.80;;;;;;474468;251;1225;-53
2022/11/04 08:59:34;;;;;;;;;;;22.40;45.80;;;;;;474553;251;2185;-53
2022/11/04 09:01:35;;;;;;;;;;;22.40;45.80;;;;;;474400;251;1384;-53
2022/11/04 09:03:37;;;;;;;;;;;22.40;45.80;;;;;;474833;251;1193;-53
2022/11/04 09:05:43;;;;;;;;;;;22.40;45.80;;;;;;474572;251;1293;-53
2022/11/04 09:07:39;;;;;;;;;;;22.40;45.80;;;;;;474418;251;1838;-53
2022/11/04 09:09:41;;;;;;;;;;;22.40;45.80;;;;;;474796;251;1332;-53
2022/11/04 09:11:42;;;;;;;;;;;22.40;45.80;;;;;;474486;251;1219;-53
2022/11/04 09:13:43;;;;;;;;;;;22.40;45.80;;;;;;474492;251;1205;-52
2022/11/04 09:15:47;;;;;;;;;;;22.40;45.90;;;;;;474440;251;1270;-53
2022/11/04 09:17:46;;;;;;;;;;;22.40;45.80;;;;;;474309;251;1914;-53
2022/11/04 09:19:47;;;;;;;;;;;22.40;45.80;;;;;;474696;251;2180;-52
2022/11/04 09:21:49;;;;;;;;;;;22.30;45.80;;;;;;474431;251;1194;-53
2022/11/04 09:23:50;;;;;;;;;;;22.40;45.80;;;;;;474444;251;1276;-52
2022/11/04 09:25:51;;;;;;;;;;;22.40;45.80;;;;;;474623;251;1276;-52
2022/11/04 09:27:53;;;;;;;;;;;22.40;45.80;;;;;;474520;251;1328;-53
2022/11/04 09:29:54;;;;;;;;;;;22.40;45.80;;;;;;474412;251;1344;-52
2022/11/04 09:31:55;;;;;;;;;;;22.40;45.80;;;;;;474502;251;1294;-52
2022/11/04 09:33:57;;;;;;;;;;;22.40;45.80;;;;;;474600;251;1336;-52
2022/11/04 09:35:58;;;;;;;;;;;22.40;45.80;;;;;;474340;251;1382;-52
2022/11/04 09:38:00;;;;;;;;;;;22.40;45.70;;;;;;474333;251;1269;-53
2022/11/04 09:40:01;;;;;;;;;;;22.40;45.80;;;;;;474364;251;2162;-53
2022/11/04 09:42:02;;;;;;;;;;;22.40;45.70;;;;;;474530;251;1332;-53
2022/11/04 09:44:04;;;;;;;;;;;22.40;45.70;;;;;;474415;251;1257;-53
2022/11/04 09:46:05;;;;;;;;;;;22.40;45.70;;;;;;474495;251;1239;-53
2022/11/04 09:48:06;;;;;;;;;;;22.40;45.70;;;;;;474507;251;1242;-52
2022/11/04 09:50:10;;;;;;;;;;;22.40;45.70;;;;;;474491;251;1299;-53
2022/11/04 09:52:09;;;;;;;;;;;22.40;45.70;;;;;;474043;251;1812;-53
2022/11/04 09:54:10;;;;;;;;;;;22.40;45.70;;;;;;474536;251;2187;-52
2022/11/04 09:56:12;;;;;;;;;;;22.40;45.70;;;;;;474093;251;1346;-53
2022/11/04 09:58:14;;;;;;;;;;;22.40;45.70;;;;;;474335;251;1355;-53
2022/11/04 10:00:15;;;;;;;;;;;22.40;45.70;;;;;;474469;251;2168;-52
2022/11/04 10:02:16;;;;;;;;;;;22.40;45.70;;;;;;474201;251;2052;-53
2022/11/04 10:04:18;;;;;;;;;;;22.40;45.70;;;;;;474433;250;1266;-53
2022/11/04 10:06:19;;;;;;;;;;;22.40;45.70;;;;;;474378;251;1236;-53
2022/11/04 10:08:21;;;;;;;;;;;22.40;45.70;;;;;;474363;251;1268;-52
2022/11/04 10:10:22;;;;;;;;;;;22.40;45.70;;;;;;474391;251;1187;-53
2022/11/04 10:12:23;;;;;;;;;;;22.40;45.60;;;;;;474286;251;1340;-53
2022/11/04 10:14:25;;;;;;;;;;;22.40;45.70;;;;;;474565;251;1248;-53
2022/11/04 10:16:26;;;;;;;;;;;22.40;45.70;;;;;;474356;251;1182;-53
2022/11/04 10:18:27;;;;;;;;;;;22.40;45.70;;;;;;474343;251;1352;-53
2022/11/04 10:20:29;;;;;;;;;;;22.40;45.70;;;;;;474511;251;2208;-53
2022/11/04 10:22:30;;;;;;;;;;;22.40;45.70;;;;;;474361;251;1412;-53
2022/11/04 10:24:31;;;;;;;;;;;22.40;45.60;;;;;;474411;251;1215;-53
2022/11/04 10:26:33;;;;;;;;;;;22.40;45.60;;;;;;474320;251;1345;-53
2022/11/04 10:28:35;;;;;;;;;;;22.40;45.70;;;;;;474391;251;1243;-53
2022/11/04 10:30:36;;;;;;;;;;;22.40;45.70;;;;;;474811;251;1339;-52
2022/11/04 10:32:39;;;;;;;;;;;22.40;45.70;;;;;;474283;251;1241;-52
2022/11/04 10:34:39;;;;;;;;;;;22.40;45.70;;;;;;474266;251;1925;-52
2022/11/04 10:36:40;;;;;;;;;;;22.40;45.60;;;;;;474392;251;1206;-53
2022/11/04 10:38:42;;;;;;;;;;;22.40;45.60;;;;;;474588;251;1311;-52
2022/11/04 10:40:43;;;;;;;;;;;22.40;45.60;;;;;;474323;251;2208;-53
2022/11/04 10:42:45;;;;;;;;;;;22.40;45.60;;;;;;474274;251;1362;-53
2022/11/04 10:44:46;;;;;;;;;;;22.40;45.60;;;;;;474491;251;1251;-53
2022/11/04 10:46:48;;;;;;;;;;;22.40;45.60;;;;;;474377;251;1209;-52
2022/11/04 10:48:49;;;;;;;;;;;22.40;45.70;;;;;;474283;251;1363;-53
2022/11/04 10:50:50;;;;;;;;;;;22.40;45.70;;;;;;474343;251;1236;-53
2022/11/04 10:52:52;;;;;;;;;;;22.40;45.70;;;;;;474432;251;1246;-53
2022/11/04 10:54:53;;;;;;;;;;;22.40;45.70;;;;;;474543;251;1256;-52
2022/11/04 10:56:54;;;;;;;;;;;22.40;45.70;;;;;;474394;251;1220;-53
2022/11/04 10:58:56;;;;;;;;;;;22.40;45.60;;;;;;474432;251;1330;-53
2022/11/04 11:00:57;;;;;;;;;;;22.40;45.60;;;;;;474412;251;2165;-52
2022/11/04 11:02:59;;;;;;;;;;;22.40;45.60;;;;;;474674;251;1772;-53
2022/11/04 11:05:00;;;;;;;;;;;22.40;45.60;;;;;;474327;251;1299;-53
2022/11/04 11:07:01;;;;;;;;;;;22.40;45.60;;;;;;474499;251;1298;-53
2022/11/04 11:09:04;;;;;;;;;;;22.40;45.60;;;;;;474365;251;1311;-52
2022/11/04 11:11:04;;;;;;;;;;;22.40;45.50;;;;;;474304;251;2016;-52
2022/11/04 11:13:06;;;;;;;;;;;22.40;45.50;;;;;;474602;251;1275;-53
2022/11/04 11:15:07;;;;;;;;;;;22.50;45.50;;;;;;474377;251;1216;-53
2022/11/04 11:17:09;;;;;;;;;;;22.40;45.50;;;;;;474465;251;1604;-53
2022/11/04 11:19:10;;;;;;;;;;;22.40;45.50;;;;;;474425;251;1332;-53
2022/11/04 11:21:11;;;;;;;;;;;22.40;45.50;;;;;;474539;251;2204;-52
2022/11/04 11:23:12;;;;;;;;;;;22.50;45.50;;;;;;474502;251;1253;-52
2022/11/04 11:25:14;;;;;;;;;;;22.50;45.50;;;;;;474505;251;1207;-53
2022/11/04 11:27:21;;;;;;;;;;;22.50;45.50;;;;;;474539;251;1353;-52
2022/11/04 11:29:16;;;;;;;;;;;22.50;45.50;;;;;;474138;251;2195;-53
2022/11/04 11:31:23;;;;;;;;;;;22.40;45.50;;;;;;474506;251;1148;-53
2022/11/04 11:33:19;;;;;;;;;;;22.50;45.50;;;;;;474194;251;1782;-53
2022/11/04 11:35:20;;;;;;;;;;;22.50;45.50;;;;;;474435;251;1115;-52
2022/11/04 11:37:22;;;;;;;;;;;22.40;45.50;;;;;;474516;251;1190;-53
2022/11/04 11:39:23;;;;;;;;;;;22.40;45.50;;;;;;474475;251;1308;-52
2022/11/04 11:41:30;;;;;;;;;;;22.40;45.40;;;;;;474488;251;2177;-53
2022/11/04 11:43:26;;;;;;;;;;;22.50;45.50;;;;;;474117;251;1947;-52
2022/11/04 11:45:27;;;;;;;;;;;22.40;45.40;;;;;;474407;251;1298;-52
2022/11/04 11:47:29;;;;;;;;;;;22.40;45.50;;;;;;474538;251;1277;-52
2022/11/04 11:49:30;;;;;;;;;;;22.50;45.50;;;;;;474634;251;1265;-53
2022/11/04 11:51:31;;;;;;;;;;;22.50;45.40;;;;;;474589;251;1348;-53
2022/11/04 11:53:37;;;;;;;;;;;22.40;45.40;;;;;;474616;251;1212;-53
2022/11/04 11:55:34;;;;;;;;;;;22.50;45.50;;;;;;474295;251;1867;-52
2022/11/04 11:57:35;;;;;;;;;;;22.40;45.50;;;;;;474448;251;1258;-53
2022/11/04 11:59:37;;;;;;;;;;;22.40;45.40;;;;;;474512;251;1297;-53
2022/11/04 12:01:39;;;;;;;;;;;22.50;45.50;;;;;;474710;251;2140;-53
2022/11/04 12:03:40;;;;;;;;;;;22.40;45.40;;;;;;474577;251;1990;-52
2022/11/04 12:05:41;;;;;;;;;;;22.50;45.50;;;;;;474460;251;1336;-53
2022/11/04 12:07:42;;;;;;;;;;;22.50;45.40;;;;;;474706;251;1238;-53
2022/11/04 12:09:44;;;;;;;;;;;22.50;45.40;;;;;;474455;251;1215;-53
2022/11/04 12:11:45;;;;;;;;;;;22.50;45.40;;;;;;474537;251;1188;-53
2022/11/04 12:13:46;;;;;;;;;;;22.50;45.30;;;;;;474396;251;1272;-52
2022/11/04 12:15:47;;;;;;;;;;;22.50;45.40;;;;;;474805;251;1212;-53
2022/11/04 12:17:49;;;;;;;;;;;22.50;45.40;;;;;;474573;251;1192;-53
2022/11/04 12:19:50;;;;;;;;;;;22.50;45.40;;;;;;474611;251;2196;-52
2022/11/04 12:21:51;;;;;;;;;;;22.50;45.40;;;;;;474521;251;1266;-53
2022/11/04 12:23:53;;;;;;;;;;;22.50;45.40;;;;;;474630;251;1343;-52
2022/11/04 12:25:54;;;;;;;;;;;22.50;45.40;;;;;;474739;251;1716;-52
2022/11/04 12:27:55;;;;;;;;;;;22.50;45.40;;;;;;474574;251;1274;-52
2022/11/04 12:29:57;;;;;;;;;;;22.40;45.40;;;;;;474497;251;1155;-53